Terminal Aerodrome Forecast
Issued by NWS Sioux Falls, SD

Home | Current Version | Previous Version | Text Only | Print | Product List | Glossary On
Versions: 1 2 3 4 5 6 7 8 9 10 11 12 13 14 15 16 17 18 19 20 21 22 23 24 25 26
051
FTUS43 KFSD 281120
TAFHON
TAF
KHON 281120Z 2812/2912 03009KT P6SM OVC015
     FM282000 03010KT P6SM OVC025
     FM290000 05009KT P6SM OVC035
     FM290400 05005KT P6SM OVC040
     FM290900 06005KT P6SM OVC030=

USA.gov is the U.S. government's official web portal to all federal, state and local government web resources and services.